Data for 09/22/2006

Time Sea-Level Adjusted Pressure Absolute Pressure Temperature Relative Humidity Dew Point   
(mb) (inHg) (mb) (inHg) (C) (F) (%) (C) (F)
00:05 1012 29.88 841 24.83 5.3 41.5 92 4.1 39.4
00:10 1012 29.88 841 24.83 5.1 41.1 92 3.9 39.1
00:15 1012 29.88 841 24.83 4.9 40.7 93 3.8 38.8
00:20 1012 29.88 841 24.83 4.6 40.3 94 3.7 38.6
00:25 1012 29.88 841 24.83 4.6 40.2 95 3.8 38.8
00:30 1012 29.88 841 24.83 4.9 40.8 93 3.9 39
00:35 1012 29.88 841 24.83 5.1 41.1 91 3.7 38.6
00:40 1012 29.88 841 24.83 5.1 41.2 91 3.7 38.7
00:45 1012 29.88 841 24.83 5.1 41.1 92 3.8 38.9
00:50 1012 29.88 841 24.83 5.1 41.1 91 3.8 38.8
00:55 1012 29.88 841 24.83 5.1 41.1 91 3.8 38.8
01:00 1012 29.88 841 24.83 5.1 41.1 91 3.8 38.8
01:05 1012 29.88 841 24.83 5.1 41.1 91 3.7 38.7
01:10 1012 29.88 841 24.83 5 41 92 3.8 38.8
01:15 1012 29.88 841 24.83 5 41.1 92 3.9 39
01:20 1012 29.88 841 24.83 5 41.1 92 3.9 38.9
01:25 1012 29.88 841 24.83 5.1 41.2 92 3.9 39.1
01:30 1012 29.88 841 24.83 5.1 41.1 92 3.8 38.8
01:35 1012 29.88 841 24.83 5 41 91 3.7 38.7
01:40 1012 29.88 841 24.83 4.9 40.8 91 3.6 38.5
01:45 1012 29.88 841 24.83 4.8 40.6 92 3.5 38.3
01:50 1012 29.88 841 24.83 4.8 40.6 91 3.5 38.2
01:55 1012 29.88 841 24.83 4.7 40.5 92 3.5 38.2
02:00 1012 29.88 842 24.86 4.7 40.4 91 3.4 38
02:05 1012 29.88 842 24.86 4.6 40.3 91 3.3 37.9
02:10 1012 29.88 842 24.86 4.6 40.2 92 3.3 38
02:15 1012 29.88 842 24.86 4.6 40.2 92 3.3 38
02:20 1013 29.91 842 24.86 4.6 40.3 92 3.4 38.1
02:25 1013 29.91 842 24.86 4.6 40.2 91 3.3 38
02:30 1013 29.91 842 24.86 4.6 40.2 92 3.3 38
02:35 1013 29.91 842 24.86 4.6 40.2 92 3.3 37.9
02:40 1013 29.91 842 24.86 4.6 40.2 91 3.3 37.9
02:45 1013 29.91 842 24.86 4.6 40.3 91 3.3 37.9
02:50 1013 29.91 842 24.86 4.6 40.3 91 3.3 37.9
02:55 1013 29.91 842 24.86 4.6 40.2 91 3.1 37.7
03:00 1013 29.91 842 24.86 4.6 40.2 91 3.3 37.9
03:05 1013 29.91 842 24.86 4.5 40.2 91 3.2 37.7
03:10 1013 29.91 842 24.86 4.5 40.1 91 3.2 37.7
03:15 1013 29.91 842 24.86 4.5 40.1 91 3.1 37.6
03:20 1013 29.91 843 24.89 4.5 40.2 91 3.2 37.7
03:25 1013 29.91 843 24.89 4.5 40.1 91 3.2 37.8
03:30 1014 29.94 843 24.89 4.5 40.1 91 3.1 37.6
03:35 1014 29.94 843 24.89 4.5 40.1 90 3 37.4
03:40 1014 29.94 843 24.89 4.4 40 91 3.1 37.6
03:45 1014 29.94 843 24.89 4.4 39.9 91 3.1 37.6
03:50 1014 29.94 843 24.89 4.5 40.1 91 3.1 37.6
03:55 1014 29.94 843 24.89 4.5 40.1 92 3.3 37.9
04:00 1014 29.94 843 24.89 4.5 40.1 91 3.1 37.6
04:05 1014 29.94 843 24.89 4.5 40.1 90 3.1 37.5
04:10 1014 29.94 843 24.89 4.4 39.9 91 3 37.4
04:15 1014 29.94 843 24.89 4.4 40 90 2.9 37.3
04:20 1014 29.94 843 24.89 4.4 39.9 90 2.9 37.1
04:25 1014 29.94 843 24.89 4.4 39.9 90 2.9 37.3
04:30 1014 29.94 843 24.89 4.3 39.8 90 2.9 37.2
04:35 1014 29.94 843 24.89 4.3 39.8 90 2.9 37.2
04:40 1014 29.94 843 24.89 4.4 39.9 90 2.9 37.2
04:45 1014 29.94 843 24.89 4.3 39.8 89 2.7 36.8
04:50 1014 29.94 844 24.92 4.3 39.8 89 2.7 36.9
04:55 1014 29.94 844 24.92 4.3 39.7 91 2.9 37.2
05:00 1015 29.97 844 24.92 4.3 39.8 90 2.8 37.1
05:05 1015 29.97 844 24.92 4.4 39.8 90 2.9 37.2
05:10 1015 29.97 844 24.92 4.3 39.8 91 2.9 37.3
05:15 1015 29.97 844 24.92 4.3 39.8 91 3 37.5
05:20 1015 29.97 844 24.92 4.3 39.8 90 2.9 37.2
05:25 1015 29.97 844 24.92 4.4 39.9 91 3.1 37.5
05:30 1015 29.97 844 24.92 4.4 39.9 90 3 37.4
05:35 1015 29.97 844 24.92 4.4 40 91 3 37.4
05:40 1015 29.97 844 24.92 4.5 40.1 90 3 37.4
05:45 1015 29.97 844 24.92 4.6 40.2 90 3 37.4
05:50 1015 29.97 844 24.92 4.6 40.3 89 3 37.3
05:55 1015 29.97 844 24.92 4.6 40.4 89 2.9 37.2
06:00 1015 29.97 844 24.92 4.6 40.3 89 2.9 37.3
06:05 1015 29.97 844 24.92 4.6 40.2 88 2.8 37.1
06:10 1015 29.97 844 24.92 4.5 40.1 88 2.7 36.9
06:15 1015 29.97 844 24.92 4.5 40 89 2.8 37
06:20 1015 29.97 844 24.92 4.4 40 88 2.7 36.8
06:25 1015 29.97 844 24.92 4.4 39.9 89 2.7 36.9
06:30 1015 29.97 844 24.92 4.4 39.9 89 2.8 37
06:35 1015 29.97 845 24.95 4.3 39.7 90 2.7 36.9
06:40 1015 29.97 845 24.95 4.3 39.7 89 2.7 36.8
06:45 1015 29.97 845 24.95 4.2 39.6 89 2.6 36.8
06:50 1016 30 845 24.95 4.2 39.6 89 2.5 36.6
06:55 1016 30 845 24.95 4.3 39.8 88 2.5 36.5
07:00 1016 30 845 24.95 4.4 39.8 87 2.4 36.4
07:05 1016 30 845 24.95 4.3 39.7 88 2.5 36.4
07:10 1016 30 845 24.95 4.3 39.8 88 2.4 36.4
07:15 1016 30 845 24.95 4.3 39.7 89 2.6 36.6
07:20 1016 30 845 24.95 4.3 39.8 88 2.5 36.5
07:25 1016 30 845 24.95 4.3 39.8 88 2.5 36.5
07:30 1016 30 845 24.95 4.3 39.7 88 2.4 36.4
07:35 1016 30 845 24.95 4.3 39.7 88 2.4 36.4
07:40 1016 30 845 24.95 4.2 39.6 88 2.3 36.2
07:45 1016 30 845 24.95 4.2 39.6 88 2.3 36.2
07:50 1016 30 845 24.95 4.2 39.6 87 2.3 36.2
07:55 1016 30 846 24.98 4.2 39.6 87 2.2 36
08:00 1016 30 846 24.98 4.3 39.7 87 2.3 36.2
08:05 1016 30 846 24.98 4.3 39.7 87 2.3 36.2
08:10 1017 30.03 846 24.98 4.2 39.6 88 2.4 36.2
08:15 1017 30.03 846 24.98 4.3 39.8 87 2.4 36.3
08:20 1017 30.03 846 24.98 4.2 39.6 87 2.3 36.1
08:25 1017 30.03 846 24.98 4.3 39.7 87 2.3 36.2
08:30 1017 30.03 846 24.98 4.3 39.8 87 2.3 36.1
08:35 1017 30.03 846 24.98 4.4 39.9 86 2.3 36.1
08:40 1017 30.03 846 24.98 4.3 39.8 86 2.3 36.1
08:45 1017 30.03 846 24.98 4.3 39.8 87 2.3 36.1
08:50 1017 30.03 846 24.98 4.3 39.7 86 2.2 35.9
08:55 1017 30.03 846 24.98 4.3 39.7 88 2.5 36.4
09:00 1017 30.03 846 24.98 4.3 39.8 88 2.4 36.4
09:05 1017 30.03 846 24.98 4.3 39.8 87 2.4 36.3
09:10 1017 30.03 846 24.98 4.4 39.9 87 2.4 36.3
09:15 1017 30.03 846 24.98 4.4 39.9 87 2.4 36.3
09:20 1017 30.03 846 24.98 4.4 40 88 2.5 36.6
09:25 1017 30.03 846 24.98 4.4 40 87 2.5 36.5
09:30 1017 30.03 847 25.01 4.5 40.1 88 2.7 36.9
09:35 1017 30.03 847 25.01 4.6 40.2 88 2.7 36.8
09:40 1017 30.03 847 25.01 4.6 40.2 87 2.5 36.5
09:45 1018 30.06 847 25.01 4.5 40 87 2.5 36.4
09:50 1018 30.06 847 25.01 4.4 39.9 89 2.7 36.8
09:55 1018 30.06 847 25.01 4.4 39.9 88 2.7 36.8
10:00 1018 30.06 847 25.01 4.4 39.8 90 2.8 37
10:05 1018 30.06 847 25.01 4.4 39.9 88 2.6 36.8
10:10 1018 30.06 847 25.01 4.3 39.8 89 2.6 36.8
10:15 1018 30.06 847 25.01 4.3 39.8 90 2.8 37
10:20 1018 30.06 847 25.01 4.3 39.7 88 2.6 36.6
10:25 1018 30.06 847 25.01 4.4 40 90 2.9 37.3
10:30 1018 30.06 847 25.01 4.5 40.2 88 2.7 36.9
10:35 1018 30.06 847 25.01 4.6 40.3 88 2.9 37.1
10:40 1018 30.06 847 25.01 4.7 40.5 89 3 37.3
10:45 1018 30.06 847 25.01 4.8 40.6 88 3 37.3
10:50 1018 30.06 847 25.01 4.6 40.2 88 2.7 36.9
10:55 1018 30.06 848 25.04 4.5 40.1 89 2.7 36.9
11:00 1018 30.06 848 25.04 4.5 40.2 90 3 37.4
11:05 1018 30.06 848 25.04 4.6 40.3 90 3.1 37.7
11:10 1018 30.06 848 25.04 4.6 40.3 89 2.9 37.2
11:15 1018 30.06 848 25.04 4.6 40.2 89 2.9 37.3
11:20 1018 30.06 848 25.04 4.6 40.4 89 3 37.5
11:25 1018 30.06 848 25.04 4.6 40.2 89 2.9 37.2
11:30 1019 30.09 848 25.04 4.5 40.1 89 2.9 37.2
11:35 1019 30.09 848 25.04 4.6 40.2 90 3 37.4
11:40 1019 30.09 848 25.04 4.7 40.4 89 3 37.4
11:45 1019 30.09 848 25.04 4.7 40.5 89 3.1 37.5
11:50 1019 30.09 848 25.04 4.9 40.8 87 2.9 37.3
11:55 1019 30.09 848 25.04 4.9 40.7 87 2.9 37.3
12:00 1019 30.09 848 25.04 4.8 40.7 87 2.8 37.1
12:05 1019 30.09 848 25.04 4.7 40.5 86 2.7 36.8
12:10 1019 30.09 848 25.04 4.8 40.7 86 2.7 36.8
12:15 1019 30.09 848 25.04 4.9 40.8 86 2.7 36.8
12:20 1019 30.09 848 25.04 5.1 41.2 85 2.8 37
12:25 1019 30.09 848 25.04 5.2 41.4 85 2.9 37.1
12:30 1019 30.09 848 25.04 5.4 41.7 84 2.9 37.2
12:35 1019 30.09 848 25.04 5.4 41.7 82 2.6 36.7
12:40 1019 30.09 848 25.04 5.4 41.7 82 2.6 36.7
12:45 1019 30.09 848 25.04 5.4 41.8 84 3 37.4
12:50 1019 30.09 849 25.07 5.6 42 83 2.9 37.2
12:55 1019 30.09 849 25.07 5.4 41.8 83 2.7 36.9
13:00 1019 30.09 849 25.07 5.3 41.5 83 2.6 36.8
13:05 1019 30.09 849 25.07 5.3 41.6 82 2.5 36.5
13:10 1019 30.09 849 25.07 5.5 41.8 83 2.9 37.2
13:15 1019 30.09 849 25.07 5.6 42.1 84 3 37.5
13:20 1019 30.09 849 25.07 5.6 42.1 84 3.2 37.7
13:25 1019 30.09 849 25.07 5.7 42.3 82 2.9 37.1
13:30 1019 30.09 849 25.07 5.7 42.2 83 3.1 37.5
13:35 1020 30.12 849 25.07 5.7 42.2 84 3.2 37.8
13:40 1019 30.09 849 25.07 5.7 42.2 82 2.9 37.3
13:45 1019 30.09 849 25.07 5.8 42.5 81 2.8 37
13:50 1019 30.09 849 25.07 5.9 42.6 81 2.9 37.2
13:55 1020 30.12 849 25.07 6.1 43 79 2.7 36.8
14:00 1020 30.12 849 25.07 6.2 43.2 81 3.1 37.6
14:05 1020 30.12 849 25.07 6.3 43.3 80 3 37.5
14:10 1020 30.12 849 25.07 6.3 43.3 79 2.8 37.1
14:15 1020 30.12 849 25.07 6.2 43.2 79 2.9 37.2
14:20 1020 30.12 849 25.07 6.3 43.4 80 3.1 37.5
14:25 1020 30.12 849 25.07 6.3 43.4 81 3.2 37.8
14:30 1020 30.12 849 25.07 6.4 43.6 78 2.9 37.1
14:35 1020 30.12 849 25.07 6.4 43.5 79 3.1 37.5
14:40 1020 30.12 849 25.07 6.8 44.2 77 3 37.4
14:45 1020 30.12 849 25.07 6.8 44.3 76 2.8 37.1
14:50 1020 30.12 849 25.07 6.8 44.3 77 3.1 37.6
14:55 1020 30.12 849 25.07 6.9 44.3 76 2.9 37.2
15:00 1020 30.12 849 25.07 6.9 44.4 76 2.9 37.2
15:05 1020 30.12 849 25.07 6.2 43.2 80 3.1 37.6
15:10 1020 30.12 849 25.07 4.9 40.9 85 2.7 36.8
15:15 1020 30.12 849 25.07 4.8 40.7 86 2.7 36.8
15:20 1020 30.12 849 25.07 5.2 41.3 86 3 37.4
15:25 1020 30.12 849 25.07 5.8 42.4 85 3.4 38.2
15:30 1020 30.12 849 25.07 6.4 43.6 81 3.4 38.2
15:35 1020 30.12 849 25.07 6.5 43.6 80 3.3 38
15:40 1020 30.12 849 25.07 6.5 43.7 81 3.4 38.2
15:45 1020 30.12 849 25.07 6.7 44 78 3.1 37.7
15:50 1020 30.12 849 25.07 6.9 44.4 78 3.3 38
15:55 1020 30.12 849 25.07 7.1 44.7 75 3 37.4
16:00 1020 30.12 849 25.07 7 44.6 74 2.7 36.9
16:05 1020 30.12 849 25.07 7.1 44.7 73 2.6 36.6
16:10 1020 30.12 849 25.07 7.2 45 74 2.8 37.1
16:15 1020 30.12 849 25.07 7.4 45.4 72 2.8 37
16:20 1020 30.12 849 25.07 7.4 45.4 72 2.7 36.8
16:25 1020 30.12 849 25.07 7.4 45.2 72 2.6 36.7
16:30 1020 30.12 849 25.07 7.2 45 71 2.4 36.2
16:35 1020 30.12 849 25.07 7.2 44.9 72 2.5 36.6
16:40 1020 30.12 849 25.07 7.1 44.7 70 2 35.6
16:45 1020 30.12 850 25.1 7.1 44.7 70 2 35.6
16:50 1020 30.12 850 25.1 7.1 44.8 72 2.4 36.2
16:55 1021 30.15 850 25.1 7.1 44.8 71 2.2 36
17:00 1021 30.15 850 25.1 7.2 44.9 71 2.2 36
17:05 1021 30.15 850 25.1 7.1 44.7 70 2 35.6
17:10 1021 30.15 850 25.1 7.1 44.7 70 2 35.6
17:15 1021 30.15 850 25.1 6.9 44.5 71 2.2 35.9
17:20 1021 30.15 850 25.1 6.8 44.3 70 1.7 35.1
17:25 1021 30.15 850 25.1 6.9 44.4 70 1.9 35.4
17:30 1021 30.15 850 25.1 7 44.6 71 2.1 35.8
17:35 1021 30.15 850 25.1 7 44.5 72 2.3 36.2
17:40 1021 30.15 850 25.1 6.9 44.4 73 2.4 36.3
17:45 1021 30.15 850 25.1 6.8 44.2 73 2.3 36.2
17:50 1021 30.15 850 25.1 6.7 44.1 73 2.3 36.1
17:55 1021 30.15 850 25.1 6.4 43.5 74 2 35.6
18:00 1021 30.15 850 25.1 6.3 43.4 73 1.9 35.5
18:05 1021 30.15 850 25.1 6.3 43.3 74 2.1 35.7
18:10 1021 30.15 851 25.13 6.2 43.2 78 2.6 36.7
18:15 1021 30.15 851 25.13 6.1 43 78 2.6 36.7
18:20 1021 30.15 851 25.13 6.1 43 77 2.4 36.3
18:25 1021 30.15 851 25.13 6.2 43.2 76 2.3 36.2
18:30 1021 30.15 851 25.13 6.3 43.3 75 2.1 35.9
18:35 1021 30.15 851 25.13 6.4 43.4 73 1.9 35.3
18:40 1022 30.18 851 25.13 6.3 43.4 72 1.6 34.9
18:45 1022 30.18 851 25.13 6.3 43.3 72 1.5 34.8
18:50 1022 30.18 851 25.13 6.2 43.2 71 1.4 34.5
18:55 1022 30.18 851 25.13 6.1 43 73 1.7 35
19:00 1022 30.18 851 25.13 6.1 43 74 1.8 35.2
19:05 1022 30.18 851 25.13 6.1 43 74 1.7 35.1
19:10 1022 30.18 851 25.13 6.1 42.9 74 1.9 35.4
19:15 1022 30.18 851 25.13 6.1 42.9 75 1.9 35.4
19:20 1022 30.18 851 25.13 6.1 43 76 2.2 35.9
19:25 1022 30.18 851 25.13 6 42.8 77 2.2 36
19:30 1022 30.18 851 25.13 5.9 42.5 76 2 35.6
19:35 1022 30.18 851 25.13 6 42.7 76 2.1 35.7
19:40 1022 30.18 851 25.13 5.9 42.7 75 1.9 35.4
19:45 1022 30.18 851 25.13 6 42.8 75 1.8 35.3
19:50 1022 30.18 851 25.13 5.9 42.7 76 2 35.6
19:55 1022 30.18 851 25.13 5.9 42.6 74 1.7 35.1
20:00 1022 30.18 852 25.16 5.8 42.5 75 1.8 35.3
20:05 1022 30.18 852 25.16 5.7 42.2 76 1.8 35.3
20:10 1023 30.21 852 25.16 5.6 42.1 77 2 35.5
20:15 1023 30.21 852 25.16 5.6 42 78 2 35.5
20:20 1023 30.21 852 25.16 5.6 42.1 78 2 35.7
20:25 1023 30.21 852 25.16 5.6 42 78 2.1 35.8
20:30 1023 30.21 852 25.16 5.6 42 79 2.2 35.9
20:35 1023 30.21 852 25.16 5.5 41.9 79 2.2 35.9
20:40 1023 30.21 852 25.16 5.4 41.8 79 2.1 35.8
20:45 1023 30.21 852 25.16 5.4 41.8 79 2.1 35.9
20:50 1023 30.21 852 25.16 5.3 41.6 80 2.1 35.8
20:55 1023 30.21 852 25.16 5.4 41.8 79 2.1 35.9
21:00 1023 30.21 852 25.16 5.5 41.9 79 2.2 35.9
21:05 1023 30.21 852 25.16 5.4 41.7 79 2.1 35.8
21:10 1023 30.21 852 25.16 5.4 41.8 79 2.1 35.7
21:15 1023 30.21 852 25.16 5.4 41.8 79 2.1 35.7
21:20 1023 30.21 852 25.16 5.4 41.8 79 2 35.6
21:25 1023 30.21 852 25.16 5.4 41.7 79 2 35.6
21:30 1023 30.21 852 25.16 5.4 41.7 79 2.1 35.8
21:35 1023 30.21 852 25.16 5 41 82 2.1 35.8
21:40 1023 30.21 853 25.19 5 40.9 82 2.2 35.9
21:45 1023 30.21 853 25.19 5 41.1 82 2.2 36
21:50 1023 30.21 853 25.19 5.2 41.4 81 2.3 36.1
21:55 1023 30.21 853 25.19 5.3 41.5 81 2.3 36.1
22:00 1023 30.21 853 25.19 5.2 41.4 81 2.3 36.1
22:05 1023 30.21 853 25.19 5.2 41.4 81 2.3 36.1
22:10 1023 30.21 853 25.19 5.2 41.3 82 2.3 36.2
22:15 1024 30.24 853 25.19 5.2 41.3 82 2.4 36.3
22:20 1023 30.21 853 25.19 5.1 41.2 83 2.4 36.3
22:25 1023 30.21 853 25.19 5.1 41.1 83 2.4 36.4
22:30 1024 30.24 853 25.19 5 41 84 2.5 36.4
22:35 1024 30.24 853 25.19 5 40.9 84 2.4 36.4
22:40 1024 30.24 853 25.19 5 41 83 2.4 36.3
22:45 1024 30.24 853 25.19 4.9 40.9 84 2.4 36.4
22:50 1024 30.24 853 25.19 5 41 83 2.4 36.4
22:55 1024 30.24 853 25.19 5 41.1 83 2.4 36.4
23:00 1024 30.24 853 25.19 4.9 40.9 85 2.6 36.6
23:05 1024 30.24 853 25.19 4.9 40.8 85 2.6 36.7
23:10 1024 30.24 853 25.19 5 41 85 2.7 36.8
23:15 1024 30.24 853 25.19 5 41 85 2.7 36.9
23:20 1024 30.24 853 25.19 4.9 40.9 86 2.7 36.9
23:25 1024 30.24 853 25.19 5 40.9 86 2.7 36.9
23:30 1024 30.24 853 25.19 4.9 40.9 86 2.8 37.1
23:35 1024 30.24 853 25.19 5 40.9 85 2.7 36.9
23:40 1024 30.24 853 25.19 5 40.9 86 2.8 37
23:45 1024 30.24 853 25.19 5 40.9 86 2.9 37.1
23:50 1024 30.24 853 25.19 4.9 40.8 86 2.7 36.9
23:55 1024 30.24 853 25.19 5 41 85 2.7 36.9
24:00 1024 30.24 853 25.19 5 41 85 2.7 36.8